sensor_id;sensor_type;location;lat;lon;timestamp;P1;durP1;ratioP1;P2;durP2;ratioP2
2766;SDS011;1391;46.742;11.636;2022-11-15T00:01:06;6.57;;;3.47;;
2766;SDS011;1391;46.742;11.636;2022-11-15T00:03:35;8.03;;;3.83;;
2766;SDS011;1391;46.742;11.636;2022-11-15T00:06:03;5.60;;;3.80;;
2766;SDS011;1391;46.742;11.636;2022-11-15T00:08:31;7.27;;;3.80;;
2766;SDS011;1391;46.742;11.636;2022-11-15T00:10:59;4.50;;;3.50;;
2766;SDS011;1391;46.742;11.636;2022-11-15T00:13:29;8.57;;;3.90;;
2766;SDS011;1391;46.742;11.636;2022-11-15T00:15:56;5.33;;;4.03;;
2766;SDS011;1391;46.742;11.636;2022-11-15T00:18:25;4.87;;;3.80;;
2766;SDS011;1391;46.742;11.636;2022-11-15T00:20:54;5.90;;;3.70;;
2766;SDS011;1391;46.742;11.636;2022-11-15T00:23:22;6.83;;;4.10;;
2766;SDS011;1391;46.742;11.636;2022-11-15T00:25:55;4.33;;;3.47;;
2766;SDS011;1391;46.742;11.636;2022-11-15T00:28:23;4.60;;;3.63;;
2766;SDS011;1391;46.742;11.636;2022-11-15T00:30:51;5.03;;;3.83;;
2766;SDS011;1391;46.742;11.636;2022-11-15T00:33:19;10.37;;;4.23;;
2766;SDS011;1391;46.742;11.636;2022-11-15T00:35:47;4.63;;;3.10;;
2766;SDS011;1391;46.742;11.636;2022-11-15T00:38:17;5.63;;;3.80;;
2766;SDS011;1391;46.742;11.636;2022-11-15T00:40:47;8.17;;;3.50;;
2766;SDS011;1391;46.742;11.636;2022-11-15T00:43:15;5.37;;;3.57;;
2766;SDS011;1391;46.742;11.636;2022-11-15T00:45:42;6.20;;;4.17;;
2766;SDS011;1391;46.742;11.636;2022-11-15T00:48:10;6.93;;;3.90;;
2766;SDS011;1391;46.742;11.636;2022-11-15T00:50:37;4.70;;;3.77;;
2766;SDS011;1391;46.742;11.636;2022-11-15T00:53:04;10.93;;;4.07;;
2766;SDS011;1391;46.742;11.636;2022-11-15T00:55:34;5.57;;;3.47;;
2766;SDS011;1391;46.742;11.636;2022-11-15T00:58:02;9.60;;;3.90;;
2766;SDS011;1391;46.742;11.636;2022-11-15T01:00:30;5.43;;;4.03;;
2766;SDS011;1391;46.742;11.636;2022-11-15T01:02:57;4.53;;;3.60;;
2766;SDS011;1391;46.742;11.636;2022-11-15T01:05:24;3.83;;;3.43;;
2766;SDS011;1391;46.742;11.636;2022-11-15T01:07:52;5.73;;;3.60;;
2766;SDS011;1391;46.742;11.636;2022-11-15T01:10:20;4.73;;;3.60;;
2766;SDS011;1391;46.742;11.636;2022-11-15T01:12:50;5.47;;;3.80;;
2766;SDS011;1391;46.742;11.636;2022-11-15T01:15:17;4.60;;;3.50;;
2766;SDS011;1391;46.742;11.636;2022-11-15T01:17:45;10.43;;;3.97;;
2766;SDS011;1391;46.742;11.636;2022-11-15T01:20:12;3.27;;;2.77;;
2766;SDS011;1391;46.742;11.636;2022-11-15T01:22:40;4.97;;;3.70;;
2766;SDS011;1391;46.742;11.636;2022-11-15T01:25:07;5.93;;;3.07;;
2766;SDS011;1391;46.742;11.636;2022-11-15T01:27:34;4.87;;;3.23;;
2766;SDS011;1391;46.742;11.636;2022-11-15T01:30:04;5.03;;;3.87;;
2766;SDS011;1391;46.742;11.636;2022-11-15T01:32:33;5.27;;;3.50;;
2766;SDS011;1391;46.742;11.636;2022-11-15T01:35:01;3.70;;;3.03;;
2766;SDS011;1391;46.742;11.636;2022-11-15T01:37:29;5.73;;;3.50;;
2766;SDS011;1391;46.742;11.636;2022-11-15T01:39:56;4.07;;;3.33;;
2766;SDS011;1391;46.742;11.636;2022-11-15T01:42:23;6.10;;;3.40;;
2766;SDS011;1391;46.742;11.636;2022-11-15T01:44:51;5.00;;;3.50;;
2766;SDS011;1391;46.742;11.636;2022-11-15T01:47:22;4.53;;;3.70;;
2766;SDS011;1391;46.742;11.636;2022-11-15T01:49:55;7.37;;;3.30;;
2766;SDS011;1391;46.742;11.636;2022-11-15T01:52:28;4.30;;;3.70;;
2766;SDS011;1391;46.742;11.636;2022-11-15T01:54:59;4.70;;;3.47;;
2766;SDS011;1391;46.742;11.636;2022-11-15T01:57:33;3.80;;;3.30;;
2766;SDS011;1391;46.742;11.636;2022-11-15T02:00:02;8.97;;;4.87;;
2766;SDS011;1391;46.742;11.636;2022-11-15T02:02:33;7.53;;;3.57;;
2766;SDS011;1391;46.742;11.636;2022-11-15T02:05:04;4.93;;;3.73;;
2766;SDS011;1391;46.742;11.636;2022-11-15T02:07:33;4.23;;;3.30;;
2766;SDS011;1391;46.742;11.636;2022-11-15T02:10:04;7.63;;;3.40;;
2766;SDS011;1391;46.742;11.636;2022-11-15T02:12:35;4.17;;;3.30;;
2766;SDS011;1391;46.742;11.636;2022-11-15T02:15:04;6.30;;;3.27;;
2766;SDS011;1391;46.742;11.636;2022-11-15T02:17:40;5.00;;;3.20;;
2766;SDS011;1391;46.742;11.636;2022-11-15T02:26:43;5.20;;;3.30;;
2766;SDS011;1391;46.742;11.636;2022-11-15T02:29:45;6.23;;;3.20;;
2766;SDS011;1391;46.742;11.636;2022-11-15T02:32:33;5.23;;;3.47;;
2766;SDS011;1391;46.742;11.636;2022-11-15T02:35:10;4.90;;;3.13;;
2766;SDS011;1391;46.742;11.636;2022-11-15T02:37:46;5.03;;;3.23;;
2766;SDS011;1391;46.742;11.636;2022-11-15T02:40:26;4.37;;;3.07;;
2766;SDS011;1391;46.742;11.636;2022-11-15T02:43:04;6.20;;;3.77;;
2766;SDS011;1391;46.742;11.636;2022-11-15T02:45:54;10.30;;;4.60;;
2766;SDS011;1391;46.742;11.636;2022-11-15T02:48:31;5.73;;;4.03;;
2766;SDS011;1391;46.742;11.636;2022-11-15T02:50:58;4.83;;;3.50;;
2766;SDS011;1391;46.742;11.636;2022-11-15T02:53:27;5.23;;;3.40;;
2766;SDS011;1391;46.742;11.636;2022-11-15T02:55:54;4.03;;;3.27;;
2766;SDS011;1391;46.742;11.636;2022-11-15T03:01:35;4.80;;;3.40;;
2766;SDS011;1391;46.742;11.636;2022-11-15T03:04:18;8.53;;;3.47;;
2766;SDS011;1391;46.742;11.636;2022-11-15T03:06:57;4.00;;;3.10;;
2766;SDS011;1391;46.742;11.636;2022-11-15T03:09:31;4.37;;;3.20;;
2766;SDS011;1391;46.742;11.636;2022-11-15T03:12:04;5.67;;;3.33;;
2766;SDS011;1391;46.742;11.636;2022-11-15T03:14:42;6.83;;;3.23;;
2766;SDS011;1391;46.742;11.636;2022-11-15T03:17:22;3.90;;;3.00;;
2766;SDS011;1391;46.742;11.636;2022-11-15T03:19:55;5.87;;;3.40;;
2766;SDS011;1391;46.742;11.636;2022-11-15T03:22:26;4.93;;;3.23;;
2766;SDS011;1391;46.742;11.636;2022-11-15T03:24:58;5.80;;;3.20;;
2766;SDS011;1391;46.742;11.636;2022-11-15T03:27:31;6.37;;;3.13;;
2766;SDS011;1391;46.742;11.636;2022-11-15T03:30:05;5.63;;;3.10;;
2766;SDS011;1391;46.742;11.636;2022-11-15T03:32:35;4.13;;;2.87;;
2766;SDS011;1391;46.742;11.636;2022-11-15T03:35:09;7.30;;;3.10;;
2766;SDS011;1391;46.742;11.636;2022-11-15T03:37:40;5.97;;;2.97;;
2766;SDS011;1391;46.742;11.636;2022-11-15T03:40:13;4.50;;;3.23;;
2766;SDS011;1391;46.742;11.636;2022-11-15T03:42:43;3.20;;;2.80;;
2766;SDS011;1391;46.742;11.636;2022-11-15T03:45:22;4.30;;;3.10;;
2766;SDS011;1391;46.742;11.636;2022-11-15T03:47:54;4.40;;;3.10;;
2766;SDS011;1391;46.742;11.636;2022-11-15T03:50:29;4.13;;;3.03;;
2766;SDS011;1391;46.742;11.636;2022-11-15T03:52:57;4.30;;;2.93;;
2766;SDS011;1391;46.742;11.636;2022-11-15T03:55:26;3.53;;;2.93;;
2766;SDS011;1391;46.742;11.636;2022-11-15T03:57:54;2.63;;;2.40;;
2766;SDS011;1391;46.742;11.636;2022-11-15T04:00:26;4.80;;;2.60;;
2766;SDS011;1391;46.742;11.636;2022-11-15T04:02:54;3.40;;;3.10;;
2766;SDS011;1391;46.742;11.636;2022-11-15T04:05:21;3.53;;;2.70;;
2766;SDS011;1391;46.742;11.636;2022-11-15T04:07:50;3.67;;;2.80;;
2766;SDS011;1391;46.742;11.636;2022-11-15T04:10:18;5.60;;;4.27;;
2766;SDS011;1391;46.742;11.636;2022-11-15T04:12:46;5.73;;;2.90;;
2766;SDS011;1391;46.742;11.636;2022-11-15T04:15:14;4.33;;;3.20;;
2766;SDS011;1391;46.742;11.636;2022-11-15T04:17:46;3.73;;;2.53;;
2766;SDS011;1391;46.742;11.636;2022-11-15T04:20:17;4.80;;;3.00;;
2766;SDS011;1391;46.742;11.636;2022-11-15T04:23:06;3.87;;;2.87;;
2766;SDS011;1391;46.742;11.636;2022-11-15T04:25:54;3.70;;;2.87;;
2766;SDS011;1391;46.742;11.636;2022-11-15T04:28:24;3.70;;;3.00;;
2766;SDS011;1391;46.742;11.636;2022-11-15T04:30:52;3.00;;;2.70;;
2766;SDS011;1391;46.742;11.636;2022-11-15T04:33:19;5.10;;;3.30;;
2766;SDS011;1391;46.742;11.636;2022-11-15T04:35:48;6.40;;;3.10;;
2766;SDS011;1391;46.742;11.636;2022-11-15T04:38:31;4.23;;;2.97;;
2766;SDS011;1391;46.742;11.636;2022-11-15T04:41:00;5.07;;;3.37;;
2766;SDS011;1391;46.742;11.636;2022-11-15T04:43:28;4.47;;;2.87;;
2766;SDS011;1391;46.742;11.636;2022-11-15T04:45:56;3.77;;;2.47;;
2766;SDS011;1391;46.742;11.636;2022-11-15T04:48:23;4.10;;;2.87;;
2766;SDS011;1391;46.742;11.636;2022-11-15T04:50:50;6.50;;;3.50;;
2766;SDS011;1391;46.742;11.636;2022-11-15T04:53:18;5.40;;;3.07;;
2766;SDS011;1391;46.742;11.636;2022-11-15T04:55:47;5.23;;;3.70;;
2766;SDS011;1391;46.742;11.636;2022-11-15T04:58:15;6.57;;;3.40;;
2766;SDS011;1391;46.742;11.636;2022-11-15T05:00:43;4.77;;;3.20;;
2766;SDS011;1391;46.742;11.636;2022-11-15T05:03:12;2.97;;;2.57;;
2766;SDS011;1391;46.742;11.636;2022-11-15T05:05:57;3.00;;;2.70;;
2766;SDS011;1391;46.742;11.636;2022-11-15T05:08:25;3.40;;;3.00;;
2766;SDS011;1391;46.742;11.636;2022-11-15T05:10:54;5.07;;;3.50;;
2766;SDS011;1391;46.742;11.636;2022-11-15T05:13:22;5.33;;;2.93;;
2766;SDS011;1391;46.742;11.636;2022-11-15T05:15:49;5.57;;;3.63;;
2766;SDS011;1391;46.742;11.636;2022-11-15T05:18:17;4.63;;;3.53;;
2766;SDS011;1391;46.742;11.636;2022-11-15T05:20:44;5.30;;;3.33;;
2766;SDS011;1391;46.742;11.636;2022-11-15T05:23:12;7.70;;;4.43;;
2766;SDS011;1391;46.742;11.636;2022-11-15T05:25:39;8.03;;;4.70;;
2766;SDS011;1391;46.742;11.636;2022-11-15T05:28:08;6.60;;;4.60;;
2766;SDS011;1391;46.742;11.636;2022-11-15T05:30:36;3.70;;;3.03;;
2766;SDS011;1391;46.742;11.636;2022-11-15T05:33:04;3.90;;;3.07;;
2766;SDS011;1391;46.742;11.636;2022-11-15T05:35:33;5.27;;;3.20;;
2766;SDS011;1391;46.742;11.636;2022-11-15T05:38:05;4.20;;;2.90;;
2766;SDS011;1391;46.742;11.636;2022-11-15T05:40:33;5.03;;;2.80;;
2766;SDS011;1391;46.742;11.636;2022-11-15T05:43:01;6.17;;;3.67;;
2766;SDS011;1391;46.742;11.636;2022-11-15T05:45:32;4.57;;;3.20;;
2766;SDS011;1391;46.742;11.636;2022-11-15T05:48:01;4.10;;;3.07;;
2766;SDS011;1391;46.742;11.636;2022-11-15T05:50:33;4.60;;;3.20;;
2766;SDS011;1391;46.742;11.636;2022-11-15T05:53:05;8.47;;;3.50;;
2766;SDS011;1391;46.742;11.636;2022-11-15T05:55:33;6.70;;;4.53;;
2766;SDS011;1391;46.742;11.636;2022-11-15T05:58:01;8.13;;;5.00;;
2766;SDS011;1391;46.742;11.636;2022-11-15T06:00:28;11.17;;;4.63;;
2766;SDS011;1391;46.742;11.636;2022-11-15T06:02:57;8.87;;;5.13;;
2766;SDS011;1391;46.742;11.636;2022-11-15T06:05:24;9.00;;;5.23;;
2766;SDS011;1391;46.742;11.636;2022-11-15T06:07:52;9.80;;;4.57;;
2766;SDS011;1391;46.742;11.636;2022-11-15T06:10:23;7.73;;;5.60;;
2766;SDS011;1391;46.742;11.636;2022-11-15T06:12:55;10.80;;;5.13;;
2766;SDS011;1391;46.742;11.636;2022-11-15T06:15:25;8.60;;;5.77;;
2766;SDS011;1391;46.742;11.636;2022-11-15T06:17:54;10.57;;;6.10;;
2766;SDS011;1391;46.742;11.636;2022-11-15T06:20:24;8.40;;;5.30;;
2766;SDS011;1391;46.742;11.636;2022-11-15T06:22:55;10.93;;;6.07;;
2766;SDS011;1391;46.742;11.636;2022-11-15T06:25:24;8.57;;;5.83;;
2766;SDS011;1391;46.742;11.636;2022-11-15T06:27:53;12.87;;;5.70;;
2766;SDS011;1391;46.742;11.636;2022-11-15T06:30:22;9.67;;;6.50;;
2766;SDS011;1391;46.742;11.636;2022-11-15T06:32:51;10.27;;;6.07;;
2766;SDS011;1391;46.742;11.636;2022-11-15T06:35:27;14.13;;;5.87;;
2766;SDS011;1391;46.742;11.636;2022-11-15T06:37:55;10.73;;;6.20;;
2766;SDS011;1391;46.742;11.636;2022-11-15T06:40:26;11.33;;;5.60;;
2766;SDS011;1391;46.742;11.636;2022-11-15T06:42:56;8.93;;;5.40;;
2766;SDS011;1391;46.742;11.636;2022-11-15T06:45:25;8.40;;;5.27;;
2766;SDS011;1391;46.742;11.636;2022-11-15T06:47:53;8.20;;;4.97;;
2766;SDS011;1391;46.742;11.636;2022-11-15T06:50:22;10.43;;;4.80;;
2766;SDS011;1391;46.742;11.636;2022-11-15T06:52:50;9.13;;;4.80;;
2766;SDS011;1391;46.742;11.636;2022-11-15T06:55:23;9.37;;;4.80;;
2766;SDS011;1391;46.742;11.636;2022-11-15T06:57:51;7.90;;;4.57;;
2766;SDS011;1391;46.742;11.636;2022-11-15T07:00:19;8.70;;;4.67;;
2766;SDS011;1391;46.742;11.636;2022-11-15T07:02:50;9.33;;;4.63;;
2766;SDS011;1391;46.742;11.636;2022-11-15T07:05:18;11.27;;;4.47;;
2766;SDS011;1391;46.742;11.636;2022-11-15T07:07:51;7.23;;;4.50;;
2766;SDS011;1391;46.742;11.636;2022-11-15T07:10:19;7.00;;;4.40;;
2766;SDS011;1391;46.742;11.636;2022-11-15T07:12:49;6.87;;;4.43;;
2766;SDS011;1391;46.742;11.636;2022-11-15T07:15:18;10.23;;;4.33;;
2766;SDS011;1391;46.742;11.636;2022-11-15T07:17:47;14.37;;;4.90;;
2766;SDS011;1391;46.742;11.636;2022-11-15T07:20:16;6.73;;;4.43;;
2766;SDS011;1391;46.742;11.636;2022-11-15T07:22:44;8.20;;;4.73;;
2766;SDS011;1391;46.742;11.636;2022-11-15T07:25:13;6.70;;;4.40;;
2766;SDS011;1391;46.742;11.636;2022-11-15T07:27:41;9.83;;;4.40;;
2766;SDS011;1391;46.742;11.636;2022-11-15T07:30:10;6.03;;;4.07;;
2766;SDS011;1391;46.742;11.636;2022-11-15T07:32:39;13.53;;;4.13;;
2766;SDS011;1391;46.742;11.636;2022-11-15T07:35:07;6.30;;;4.10;;
2766;SDS011;1391;46.742;11.636;2022-11-15T07:37:35;7.50;;;3.97;;
2766;SDS011;1391;46.742;11.636;2022-11-15T07:40:03;4.50;;;3.23;;
2766;SDS011;1391;46.742;11.636;2022-11-15T07:42:33;4.73;;;3.47;;
2766;SDS011;1391;46.742;11.636;2022-11-15T07:45:19;7.27;;;4.63;;
2766;SDS011;1391;46.742;11.636;2022-11-15T07:47:46;12.43;;;6.07;;
2766;SDS011;1391;46.742;11.636;2022-11-15T07:50:15;11.67;;;6.70;;
2766;SDS011;1391;46.742;11.636;2022-11-15T07:52:43;12.43;;;6.83;;
2766;SDS011;1391;46.742;11.636;2022-11-15T07:55:11;13.17;;;6.57;;
2766;SDS011;1391;46.742;11.636;2022-11-15T07:57:41;10.40;;;6.10;;
2766;SDS011;1391;46.742;11.636;2022-11-15T08:00:09;13.70;;;6.50;;
2766;SDS011;1391;46.742;11.636;2022-11-15T08:02:38;14.83;;;5.90;;
2766;SDS011;1391;46.742;11.636;2022-11-15T08:05:05;11.67;;;5.13;;
2766;SDS011;1391;46.742;11.636;2022-11-15T08:07:33;11.20;;;6.03;;
2766;SDS011;1391;46.742;11.636;2022-11-15T08:10:03;8.50;;;5.23;;
2766;SDS011;1391;46.742;11.636;2022-11-15T08:12:33;8.83;;;5.60;;
2766;SDS011;1391;46.742;11.636;2022-11-15T08:15:04;13.10;;;5.77;;
2766;SDS011;1391;46.742;11.636;2022-11-15T08:17:33;9.07;;;5.23;;
2766;SDS011;1391;46.742;11.636;2022-11-15T08:20:00;8.87;;;5.90;;
2766;SDS011;1391;46.742;11.636;2022-11-15T08:22:28;8.00;;;5.73;;
2766;SDS011;1391;46.742;11.636;2022-11-15T08:24:57;10.90;;;6.80;;
2766;SDS011;1391;46.742;11.636;2022-11-15T08:27:25;12.30;;;5.83;;
2766;SDS011;1391;46.742;11.636;2022-11-15T08:29:52;13.83;;;5.87;;
2766;SDS011;1391;46.742;11.636;2022-11-15T08:32:22;10.87;;;5.70;;
2766;SDS011;1391;46.742;11.636;2022-11-15T08:34:49;9.27;;;4.70;;
2766;SDS011;1391;46.742;11.636;2022-11-15T08:37:17;11.67;;;5.37;;
2766;SDS011;1391;46.742;11.636;2022-11-15T08:39:44;13.37;;;4.53;;
2766;SDS011;1391;46.742;11.636;2022-11-15T08:42:11;8.27;;;4.30;;
2766;SDS011;1391;46.742;11.636;2022-11-15T08:44:40;8.53;;;4.67;;
2766;SDS011;1391;46.742;11.636;2022-11-15T08:47:08;8.63;;;5.10;;
2766;SDS011;1391;46.742;11.636;2022-11-15T08:49:40;8.87;;;4.70;;
2766;SDS011;1391;46.742;11.636;2022-11-15T08:52:08;5.90;;;4.10;;
2766;SDS011;1391;46.742;11.636;2022-11-15T08:54:37;8.20;;;5.07;;
2766;SDS011;1391;46.742;11.636;2022-11-15T08:57:04;8.40;;;4.80;;
2766;SDS011;1391;46.742;11.636;2022-11-15T08:59:34;9.53;;;4.90;;
2766;SDS011;1391;46.742;11.636;2022-11-15T09:02:02;7.10;;;4.10;;
2766;SDS011;1391;46.742;11.636;2022-11-15T09:04:30;7.80;;;3.77;;
2766;SDS011;1391;46.742;11.636;2022-11-15T09:06:59;6.23;;;3.83;;
2766;SDS011;1391;46.742;11.636;2022-11-15T09:09:27;5.00;;;3.60;;
2766;SDS011;1391;46.742;11.636;2022-11-15T09:11:54;4.40;;;3.33;;
2766;SDS011;1391;46.742;11.636;2022-11-15T09:14:22;4.57;;;3.60;;
2766;SDS011;1391;46.742;11.636;2022-11-15T09:16:49;7.10;;;4.00;;
2766;SDS011;1391;46.742;11.636;2022-11-15T09:19:17;8.53;;;3.90;;
2766;SDS011;1391;46.742;11.636;2022-11-15T09:21:45;10.70;;;4.23;;
2766;SDS011;1391;46.742;11.636;2022-11-15T09:24:14;6.47;;;4.17;;
2766;SDS011;1391;46.742;11.636;2022-11-15T09:26:44;5.40;;;3.47;;
2766;SDS011;1391;46.742;11.636;2022-11-15T09:29:11;8.37;;;3.40;;
2766;SDS011;1391;46.742;11.636;2022-11-15T09:31:40;5.33;;;3.63;;
2766;SDS011;1391;46.742;11.636;2022-11-15T09:34:08;5.43;;;3.30;;
2766;SDS011;1391;46.742;11.636;2022-11-15T09:36:36;6.23;;;4.57;;
2766;SDS011;1391;46.742;11.636;2022-11-15T09:39:04;4.80;;;3.70;;
2766;SDS011;1391;46.742;11.636;2022-11-15T09:41:37;6.00;;;3.53;;
2766;SDS011;1391;46.742;11.636;2022-11-15T09:44:41;5.07;;;3.60;;
2766;SDS011;1391;46.742;11.636;2022-11-15T09:50:53;5.70;;;3.50;;
2766;SDS011;1391;46.742;11.636;2022-11-15T09:53:25;4.03;;;3.47;;
2766;SDS011;1391;46.742;11.636;2022-11-15T09:55:58;5.93;;;3.80;;
2766;SDS011;1391;46.742;11.636;2022-11-15T09:58:33;4.20;;;3.27;;
2766;SDS011;1391;46.742;11.636;2022-11-15T10:01:12;6.67;;;3.70;;
2766;SDS011;1391;46.742;11.636;2022-11-15T10:03:46;4.80;;;3.20;;
2766;SDS011;1391;46.742;11.636;2022-11-15T10:06:17;5.87;;;3.40;;
2766;SDS011;1391;46.742;11.636;2022-11-15T10:08:51;7.17;;;3.93;;
2766;SDS011;1391;46.742;11.636;2022-11-15T10:11:27;5.13;;;3.20;;
2766;SDS011;1391;46.742;11.636;2022-11-15T10:14:01;3.30;;;2.80;;
2766;SDS011;1391;46.742;11.636;2022-11-15T10:20:02;3.20;;;2.83;;
2766;SDS011;1391;46.742;11.636;2022-11-15T10:22:39;3.63;;;3.10;;
2766;SDS011;1391;46.742;11.636;2022-11-15T10:25:16;5.43;;;3.37;;
2766;SDS011;1391;46.742;11.636;2022-11-15T10:27:51;4.07;;;2.90;;
2766;SDS011;1391;46.742;11.636;2022-11-15T10:30:29;8.27;;;3.20;;
2766;SDS011;1391;46.742;11.636;2022-11-15T10:33:01;4.37;;;3.07;;
2766;SDS011;1391;46.742;11.636;2022-11-15T10:35:45;3.50;;;3.07;;
2766;SDS011;1391;46.742;11.636;2022-11-15T10:38:12;6.33;;;3.20;;
2766;SDS011;1391;46.742;11.636;2022-11-15T10:40:41;5.77;;;3.33;;
2766;SDS011;1391;46.742;11.636;2022-11-15T10:43:14;4.30;;;3.17;;
2766;SDS011;1391;46.742;11.636;2022-11-15T10:45:47;3.93;;;3.53;;
2766;SDS011;1391;46.742;11.636;2022-11-15T10:48:22;5.67;;;3.37;;
2766;SDS011;1391;46.742;11.636;2022-11-15T10:50:52;5.90;;;3.40;;
2766;SDS011;1391;46.742;11.636;2022-11-15T10:53:27;3.93;;;3.10;;
2766;SDS011;1391;46.742;11.636;2022-11-15T10:55:59;7.13;;;3.13;;
2766;SDS011;1391;46.742;11.636;2022-11-15T10:58:35;4.93;;;3.50;;
2766;SDS011;1391;46.742;11.636;2022-11-15T11:01:10;4.17;;;3.53;;
2766;SDS011;1391;46.742;11.636;2022-11-15T11:03:42;3.53;;;3.00;;
2766;SDS011;1391;46.742;11.636;2022-11-15T11:06:13;5.80;;;4.30;;
2766;SDS011;1391;46.742;11.636;2022-11-15T11:08:53;5.33;;;4.50;;
2766;SDS011;1391;46.742;11.636;2022-11-15T11:11:25;5.90;;;3.97;;
2766;SDS011;1391;46.742;11.636;2022-11-15T11:14:11;4.13;;;2.83;;
2766;SDS011;1391;46.742;11.636;2022-11-15T11:16:44;3.73;;;3.10;;
2766;SDS011;1391;46.742;11.636;2022-11-15T11:22:22;5.17;;;3.30;;
2766;SDS011;1391;46.742;11.636;2022-11-15T11:25:07;4.07;;;3.03;;
2766;SDS011;1391;46.742;11.636;2022-11-15T11:27:51;3.13;;;2.83;;
2766;SDS011;1391;46.742;11.636;2022-11-15T11:30:43;10.50;;;3.43;;
2766;SDS011;1391;46.742;11.636;2022-11-15T11:33:27;5.07;;;4.20;;
2766;SDS011;1391;46.742;11.636;2022-11-15T11:36:01;5.10;;;4.27;;
2766;SDS011;1391;46.742;11.636;2022-11-15T11:38:44;7.83;;;5.77;;
2766;SDS011;1391;46.742;11.636;2022-11-15T11:41:38;14.23;;;8.67;;
2766;SDS011;1391;46.742;11.636;2022-11-15T11:44:23;9.23;;;6.07;;
2766;SDS011;1391;46.742;11.636;2022-11-15T11:46:59;9.13;;;6.30;;
2766;SDS011;1391;46.742;11.636;2022-11-15T11:49:32;7.53;;;4.40;;
2766;SDS011;1391;46.742;11.636;2022-11-15T11:52:09;7.03;;;4.40;;
2766;SDS011;1391;46.742;11.636;2022-11-15T11:54:44;9.27;;;5.00;;
2766;SDS011;1391;46.742;11.636;2022-11-15T11:57:22;10.57;;;6.83;;
2766;SDS011;1391;46.742;11.636;2022-11-15T12:00:03;7.27;;;5.47;;
2766;SDS011;1391;46.742;11.636;2022-11-15T12:02:41;4.80;;;3.40;;
2766;SDS011;1391;46.742;11.636;2022-11-15T12:05:17;7.40;;;3.13;;
2766;SDS011;1391;46.742;11.636;2022-11-15T12:07:53;3.73;;;2.50;;
2766;SDS011;1391;46.742;11.636;2022-11-15T12:10:28;4.30;;;2.73;;
2766;SDS011;1391;46.742;11.636;2022-11-15T12:13:00;2.87;;;2.60;;
2766;SDS011;1391;46.742;11.636;2022-11-15T12:15:32;3.07;;;2.73;;
2766;SDS011;1391;46.742;11.636;2022-11-15T12:18:08;8.37;;;4.77;;
2766;SDS011;1391;46.742;11.636;2022-11-15T12:20:49;5.17;;;3.43;;
2766;SDS011;1391;46.742;11.636;2022-11-15T12:23:23;5.03;;;3.33;;
2766;SDS011;1391;46.742;11.636;2022-11-15T12:25:55;6.87;;;2.77;;
2766;SDS011;1391;46.742;11.636;2022-11-15T12:28:30;5.20;;;3.30;;
2766;SDS011;1391;46.742;11.636;2022-11-15T12:31:05;5.00;;;3.37;;
2766;SDS011;1391;46.742;11.636;2022-11-15T12:33:41;7.73;;;3.60;;
2766;SDS011;1391;46.742;11.636;2022-11-15T12:39:05;12.50;;;7.47;;
2766;SDS011;1391;46.742;11.636;2022-11-15T12:41:35;10.13;;;5.50;;
2766;SDS011;1391;46.742;11.636;2022-11-15T12:44:05;6.13;;;4.73;;
2766;SDS011;1391;46.742;11.636;2022-11-15T12:49:49;9.80;;;4.67;;
2766;SDS011;1391;46.742;11.636;2022-11-15T12:52:19;10.03;;;6.33;;
2766;SDS011;1391;46.742;11.636;2022-11-15T12:57:56;6.17;;;4.33;;
2766;SDS011;1391;46.742;11.636;2022-11-15T13:00:54;7.90;;;4.47;;
2766;SDS011;1391;46.742;11.636;2022-11-15T13:03:23;8.73;;;5.63;;
2766;SDS011;1391;46.742;11.636;2022-11-15T13:05:56;9.53;;;6.33;;
2766;SDS011;1391;46.742;11.636;2022-11-15T13:09:49;10.97;;;6.30;;
2766;SDS011;1391;46.742;11.636;2022-11-15T13:15:31;6.67;;;4.47;;
2766;SDS011;1391;46.742;11.636;2022-11-15T13:21:03;5.37;;;3.80;;
2766;SDS011;1391;46.742;11.636;2022-11-15T13:24:04;4.47;;;3.23;;
2766;SDS011;1391;46.742;11.636;2022-11-15T13:26:39;4.73;;;3.57;;
2766;SDS011;1391;46.742;11.636;2022-11-15T13:29:14;7.57;;;4.00;;
2766;SDS011;1391;46.742;11.636;2022-11-15T13:31:44;9.53;;;4.03;;
2766;SDS011;1391;46.742;11.636;2022-11-15T13:34:24;4.83;;;3.63;;
2766;SDS011;1391;46.742;11.636;2022-11-15T13:36:55;3.77;;;3.27;;
2766;SDS011;1391;46.742;11.636;2022-11-15T13:39:30;4.13;;;3.73;;
2766;SDS011;1391;46.742;11.636;2022-11-15T13:42:02;3.93;;;3.53;;
2766;SDS011;1391;46.742;11.636;2022-11-15T13:44:31;3.97;;;3.43;;
2766;SDS011;1391;46.742;11.636;2022-11-15T13:47:00;6.00;;;4.10;;
2766;SDS011;1391;46.742;11.636;2022-11-15T13:49:30;5.57;;;4.23;;
2766;SDS011;1391;46.742;11.636;2022-11-15T13:51:59;4.93;;;4.20;;
2766;SDS011;1391;46.742;11.636;2022-11-15T13:54:30;5.30;;;3.90;;
2766;SDS011;1391;46.742;11.636;2022-11-15T13:57:03;6.60;;;4.00;;
2766;SDS011;1391;46.742;11.636;2022-11-15T13:59:36;4.23;;;3.47;;
2766;SDS011;1391;46.742;11.636;2022-11-15T14:02:14;4.60;;;4.00;;
2766;SDS011;1391;46.742;11.636;2022-11-15T14:04:45;5.63;;;3.73;;
2766;SDS011;1391;46.742;11.636;2022-11-15T14:07:17;7.90;;;4.23;;
2766;SDS011;1391;46.742;11.636;2022-11-15T14:09:49;7.00;;;3.73;;
2766;SDS011;1391;46.742;11.636;2022-11-15T14:12:21;4.73;;;3.87;;
2766;SDS011;1391;46.742;11.636;2022-11-15T14:14:53;5.43;;;4.00;;
2766;SDS011;1391;46.742;11.636;2022-11-15T14:17:21;7.20;;;3.43;;
2766;SDS011;1391;46.742;11.636;2022-11-15T14:20:01;4.73;;;3.90;;
2766;SDS011;1391;46.742;11.636;2022-11-15T14:22:29;5.00;;;3.97;;
2766;SDS011;1391;46.742;11.636;2022-11-15T14:25:06;5.67;;;3.80;;
2766;SDS011;1391;46.742;11.636;2022-11-15T14:27:42;7.70;;;4.27;;
2766;SDS011;1391;46.742;11.636;2022-11-15T14:30:14;9.93;;;4.57;;
2766;SDS011;1391;46.742;11.636;2022-11-15T14:32:45;7.53;;;3.80;;
2766;SDS011;1391;46.742;11.636;2022-11-15T14:35:16;7.80;;;4.30;;
2766;SDS011;1391;46.742;11.636;2022-11-15T14:37:46;11.57;;;4.57;;
2766;SDS011;1391;46.742;11.636;2022-11-15T14:40:16;6.57;;;4.17;;
2766;SDS011;1391;46.742;11.636;2022-11-15T14:42:46;6.27;;;4.00;;
2766;SDS011;1391;46.742;11.636;2022-11-15T14:45:15;9.93;;;4.00;;
2766;SDS011;1391;46.742;11.636;2022-11-15T14:47:45;8.87;;;3.83;;
2766;SDS011;1391;46.742;11.636;2022-11-15T14:50:13;7.23;;;4.40;;
2766;SDS011;1391;46.742;11.636;2022-11-15T14:52:42;8.40;;;4.30;;
2766;SDS011;1391;46.742;11.636;2022-11-15T14:55:12;8.40;;;5.77;;
2766;SDS011;1391;46.742;11.636;2022-11-15T14:57:47;6.57;;;5.60;;
2766;SDS011;1391;46.742;11.636;2022-11-15T15:00:15;10.27;;;4.23;;
2766;SDS011;1391;46.742;11.636;2022-11-15T15:02:44;5.67;;;4.30;;
2766;SDS011;1391;46.742;11.636;2022-11-15T15:05:14;6.60;;;4.40;;
2766;SDS011;1391;46.742;11.636;2022-11-15T15:07:46;12.00;;;4.70;;
2766;SDS011;1391;46.742;11.636;2022-11-15T15:10:14;6.80;;;4.53;;
2766;SDS011;1391;46.742;11.636;2022-11-15T15:12:44;10.30;;;4.70;;
2766;SDS011;1391;46.742;11.636;2022-11-15T15:15:12;8.53;;;4.97;;
2766;SDS011;1391;46.742;11.636;2022-11-15T15:17:42;6.63;;;4.50;;
2766;SDS011;1391;46.742;11.636;2022-11-15T15:20:10;6.97;;;4.90;;
2766;SDS011;1391;46.742;11.636;2022-11-15T15:22:38;8.87;;;6.33;;
2766;SDS011;1391;46.742;11.636;2022-11-15T15:27:54;10.03;;;6.80;;
2766;SDS011;1391;46.742;11.636;2022-11-15T15:30:22;8.80;;;6.90;;
2766;SDS011;1391;46.742;11.636;2022-11-15T15:32:52;8.33;;;6.47;;
2766;SDS011;1391;46.742;11.636;2022-11-15T15:35:20;16.87;;;8.67;;
2766;SDS011;1391;46.742;11.636;2022-11-15T15:37:48;10.60;;;5.83;;
2766;SDS011;1391;46.742;11.636;2022-11-15T15:40:18;12.53;;;5.67;;
2766;SDS011;1391;46.742;11.636;2022-11-15T15:42:50;11.47;;;5.83;;
2766;SDS011;1391;46.742;11.636;2022-11-15T15:45:18;9.07;;;4.83;;
2766;SDS011;1391;46.742;11.636;2022-11-15T15:47:48;9.07;;;4.90;;
2766;SDS011;1391;46.742;11.636;2022-11-15T15:50:20;10.40;;;4.50;;
2766;SDS011;1391;46.742;11.636;2022-11-15T15:52:50;9.70;;;4.40;;
2766;SDS011;1391;46.742;11.636;2022-11-15T15:55:19;7.93;;;5.10;;
2766;SDS011;1391;46.742;11.636;2022-11-15T15:57:49;8.83;;;6.07;;
2766;SDS011;1391;46.742;11.636;2022-11-15T16:00:17;9.60;;;4.67;;
2766;SDS011;1391;46.742;11.636;2022-11-15T16:02:46;7.67;;;5.43;;
2766;SDS011;1391;46.742;11.636;2022-11-15T16:05:14;10.73;;;5.77;;